sensor_id;sensor_type;location;lat;lon;timestamp;P1;durP1;ratioP1;P2;durP2;ratioP2
18046;SDS011;9148;51.454;13.862;2023-10-08T00:01:18;0.15;;;0.10;;
18046;SDS011;9148;51.454;13.862;2023-10-08T00:03:46;0.05;;;0.05;;
18046;SDS011;9148;51.454;13.862;2023-10-08T00:06:16;0.20;;;0.20;;
18046;SDS011;9148;51.454;13.862;2023-10-08T00:08:44;0.10;;;0.10;;
18046;SDS011;9148;51.454;13.862;2023-10-08T00:11:10;0.20;;;0.13;;
18046;SDS011;9148;51.454;13.862;2023-10-08T00:13:36;0.10;;;0.10;;
18046;SDS011;9148;51.454;13.862;2023-10-08T00:16:06;0.10;;;0.10;;
18046;SDS011;9148;51.454;13.862;2023-10-08T00:18:36;0.10;;;0.10;;
18046;SDS011;9148;51.454;13.862;2023-10-08T00:21:03;0.10;;;0.10;;
18046;SDS011;9148;51.454;13.862;2023-10-08T00:23:49;0.25;;;0.25;;
18046;SDS011;9148;51.454;13.862;2023-10-08T00:26:20;0.17;;;0.17;;
18046;SDS011;9148;51.454;13.862;2023-10-08T00:28:53;0.15;;;0.15;;
18046;SDS011;9148;51.454;13.862;2023-10-08T00:31:24;0.10;;;0.10;;
18046;SDS011;9148;51.454;13.862;2023-10-08T00:33:58;0.22;;;0.20;;
18046;SDS011;9148;51.454;13.862;2023-10-08T00:36:24;0.00;;;0.00;;
18046;SDS011;9148;51.454;13.862;2023-10-08T00:38:50;0.30;;;0.30;;
18046;SDS011;9148;51.454;13.862;2023-10-08T00:41:18;0.10;;;0.10;;
18046;SDS011;9148;51.454;13.862;2023-10-08T00:43:53;0.10;;;0.10;;
18046;SDS011;9148;51.454;13.862;2023-10-08T00:46:22;0.08;;;0.08;;
18046;SDS011;9148;51.454;13.862;2023-10-08T00:48:52;0.00;;;0.00;;
18046;SDS011;9148;51.454;13.862;2023-10-08T00:51:22;0.10;;;0.10;;
18046;SDS011;9148;51.454;13.862;2023-10-08T00:53:59;0.00;;;0.00;;
18046;SDS011;9148;51.454;13.862;2023-10-08T00:56:31;0.10;;;0.10;;
18046;SDS011;9148;51.454;13.862;2023-10-08T00:59:17;0.00;;;0.00;;
18046;SDS011;9148;51.454;13.862;2023-10-08T01:01:49;0.00;;;0.00;;
18046;SDS011;9148;51.454;13.862;2023-10-08T01:04:45;0.00;;;0.00;;
18046;SDS011;9148;51.454;13.862;2023-10-08T01:07:12;0.10;;;0.10;;
18046;SDS011;9148;51.454;13.862;2023-10-08T01:09:40;0.10;;;0.10;;
18046;SDS011;9148;51.454;13.862;2023-10-08T01:12:22;0.10;;;0.10;;
18046;SDS011;9148;51.454;13.862;2023-10-08T01:14:48;0.00;;;0.00;;
18046;SDS011;9148;51.454;13.862;2023-10-08T01:17:18;0.00;;;0.00;;
18046;SDS011;9148;51.454;13.862;2023-10-08T01:19:47;0.00;;;0.00;;
18046;SDS011;9148;51.454;13.862;2023-10-08T01:22:16;0.10;;;0.10;;
18046;SDS011;9148;51.454;13.862;2023-10-08T01:24:46;0.23;;;0.20;;
18046;SDS011;9148;51.454;13.862;2023-10-08T01:27:16;0.10;;;0.10;;
18046;SDS011;9148;51.454;13.862;2023-10-08T01:29:49;0.10;;;0.10;;
18046;SDS011;9148;51.454;13.862;2023-10-08T01:32:18;0.00;;;0.00;;
18046;SDS011;9148;51.454;13.862;2023-10-08T01:34:45;0.00;;;0.00;;
18046;SDS011;9148;51.454;13.862;2023-10-08T01:37:12;0.40;;;0.40;;
18046;SDS011;9148;51.454;13.862;2023-10-08T01:39:45;0.00;;;0.00;;
18046;SDS011;9148;51.454;13.862;2023-10-08T01:42:15;0.10;;;0.10;;
18046;SDS011;9148;51.454;13.862;2023-10-08T01:44:43;0.10;;;0.10;;
18046;SDS011;9148;51.454;13.862;2023-10-08T01:47:14;0.00;;;0.00;;
18046;SDS011;9148;51.454;13.862;2023-10-08T01:49:40;0.00;;;0.00;;
18046;SDS011;9148;51.454;13.862;2023-10-08T01:52:15;0.10;;;0.10;;
18046;SDS011;9148;51.454;13.862;2023-10-08T01:54:47;4.60;;;0.20;;
18046;SDS011;9148;51.454;13.862;2023-10-08T01:57:19;0.00;;;0.00;;
18046;SDS011;9148;51.454;13.862;2023-10-08T01:59:44;0.03;;;0.03;;
18046;SDS011;9148;51.454;13.862;2023-10-08T02:02:10;0.10;;;0.10;;
18046;SDS011;9148;51.454;13.862;2023-10-08T02:04:37;0.00;;;0.00;;
18046;SDS011;9148;51.454;13.862;2023-10-08T02:07:03;0.00;;;0.00;;
18046;SDS011;9148;51.454;13.862;2023-10-08T02:09:32;0.00;;;0.00;;
18046;SDS011;9148;51.454;13.862;2023-10-08T02:12:07;0.27;;;0.27;;
18046;SDS011;9148;51.454;13.862;2023-10-08T02:14:33;0.17;;;0.17;;
18046;SDS011;9148;51.454;13.862;2023-10-08T02:17:00;0.10;;;0.10;;
18046;SDS011;9148;51.454;13.862;2023-10-08T02:19:31;0.30;;;0.30;;
18046;SDS011;9148;51.454;13.862;2023-10-08T02:21:57;0.20;;;0.20;;
18046;SDS011;9148;51.454;13.862;2023-10-08T02:24:24;0.30;;;0.13;;
18046;SDS011;9148;51.454;13.862;2023-10-08T02:26:54;0.10;;;0.10;;
18046;SDS011;9148;51.454;13.862;2023-10-08T02:29:24;0.20;;;0.20;;
18046;SDS011;9148;51.454;13.862;2023-10-08T02:31:51;0.20;;;0.20;;
18046;SDS011;9148;51.454;13.862;2023-10-08T02:34:20;0.10;;;0.10;;
18046;SDS011;9148;51.454;13.862;2023-10-08T02:36:46;0.63;;;0.63;;
18046;SDS011;9148;51.454;13.862;2023-10-08T02:39:12;1.03;;;0.30;;
18046;SDS011;9148;51.454;13.862;2023-10-08T02:41:42;1.57;;;0.33;;
18046;SDS011;9148;51.454;13.862;2023-10-08T02:44:12;0.33;;;0.20;;
18046;SDS011;9148;51.454;13.862;2023-10-08T02:46:39;1.07;;;0.57;;
18046;SDS011;9148;51.454;13.862;2023-10-08T02:49:12;0.73;;;0.60;;
18046;SDS011;9148;51.454;13.862;2023-10-08T02:51:45;0.70;;;0.63;;
18046;SDS011;9148;51.454;13.862;2023-10-08T02:54:15;0.27;;;0.27;;
18046;SDS011;9148;51.454;13.862;2023-10-08T02:56:52;0.57;;;0.20;;
18046;SDS011;9148;51.454;13.862;2023-10-08T02:59:24;1.03;;;0.50;;
18046;SDS011;9148;51.454;13.862;2023-10-08T03:02:03;0.63;;;0.63;;
18046;SDS011;9148;51.454;13.862;2023-10-08T03:04:38;0.90;;;0.90;;
18046;SDS011;9148;51.454;13.862;2023-10-08T03:07:06;0.40;;;0.30;;
18046;SDS011;9148;51.454;13.862;2023-10-08T03:09:37;0.43;;;0.43;;
18046;SDS011;9148;51.454;13.862;2023-10-08T03:12:07;0.57;;;0.47;;
18046;SDS011;9148;51.454;13.862;2023-10-08T03:14:35;0.33;;;0.33;;
18046;SDS011;9148;51.454;13.862;2023-10-08T03:17:13;0.60;;;0.40;;
18046;SDS011;9148;51.454;13.862;2023-10-08T03:19:44;0.77;;;0.40;;
18046;SDS011;9148;51.454;13.862;2023-10-08T03:22:11;1.03;;;0.53;;
18046;SDS011;9148;51.454;13.862;2023-10-08T03:24:40;0.60;;;0.50;;
18046;SDS011;9148;51.454;13.862;2023-10-08T03:27:06;0.27;;;0.27;;
18046;SDS011;9148;51.454;13.862;2023-10-08T03:29:36;0.33;;;0.33;;
18046;SDS011;9148;51.454;13.862;2023-10-08T03:32:07;1.70;;;0.60;;
18046;SDS011;9148;51.454;13.862;2023-10-08T03:34:39;1.90;;;0.70;;
18046;SDS011;9148;51.454;13.862;2023-10-08T03:37:09;0.53;;;0.40;;
18046;SDS011;9148;51.454;13.862;2023-10-08T03:39:35;1.07;;;0.60;;
18046;SDS011;9148;51.454;13.862;2023-10-08T03:42:19;0.40;;;0.40;;
18046;SDS011;9148;51.454;13.862;2023-10-08T03:45:05;0.70;;;0.60;;
18046;SDS011;9148;51.454;13.862;2023-10-08T03:47:38;0.70;;;0.70;;
18046;SDS011;9148;51.454;13.862;2023-10-08T03:50:12;2.37;;;0.80;;
18046;SDS011;9148;51.454;13.862;2023-10-08T03:52:42;3.23;;;0.80;;
18046;SDS011;9148;51.454;13.862;2023-10-08T03:55:09;0.30;;;0.30;;
18046;SDS011;9148;51.454;13.862;2023-10-08T03:57:43;0.60;;;0.60;;
18046;SDS011;9148;51.454;13.862;2023-10-08T04:00:13;0.80;;;0.80;;
18046;SDS011;9148;51.454;13.862;2023-10-08T04:02:53;2.00;;;0.70;;
18046;SDS011;9148;51.454;13.862;2023-10-08T04:05:23;0.37;;;0.37;;
18046;SDS011;9148;51.454;13.862;2023-10-08T04:07:58;1.13;;;0.40;;
18046;SDS011;9148;51.454;13.862;2023-10-08T04:10:24;0.93;;;0.70;;
18046;SDS011;9148;51.454;13.862;2023-10-08T04:12:59;0.47;;;0.47;;
18046;SDS011;9148;51.454;13.862;2023-10-08T04:15:25;2.90;;;0.80;;
18046;SDS011;9148;51.454;13.862;2023-10-08T04:17:52;0.50;;;0.50;;
18046;SDS011;9148;51.454;13.862;2023-10-08T04:20:21;0.70;;;0.60;;
18046;SDS011;9148;51.454;13.862;2023-10-08T04:23:03;1.90;;;0.70;;
18046;SDS011;9148;51.454;13.862;2023-10-08T04:25:46;3.13;;;0.70;;
18046;SDS011;9148;51.454;13.862;2023-10-08T04:28:19;1.23;;;0.77;;
18046;SDS011;9148;51.454;13.862;2023-10-08T04:30:46;1.90;;;1.23;;
18046;SDS011;9148;51.454;13.862;2023-10-08T04:33:13;2.33;;;0.70;;
18046;SDS011;9148;51.454;13.862;2023-10-08T04:35:48;1.60;;;0.70;;
18046;SDS011;9148;51.454;13.862;2023-10-08T04:38:21;0.20;;;0.20;;
18046;SDS011;9148;51.454;13.862;2023-10-08T04:40:48;0.93;;;0.60;;
18046;SDS011;9148;51.454;13.862;2023-10-08T04:43:21;0.77;;;0.60;;
18046;SDS011;9148;51.454;13.862;2023-10-08T04:45:55;1.67;;;1.10;;
18046;SDS011;9148;51.454;13.862;2023-10-08T04:48:23;0.73;;;0.40;;
18046;SDS011;9148;51.454;13.862;2023-10-08T04:50:50;0.97;;;0.87;;
18046;SDS011;9148;51.454;13.862;2023-10-08T04:53:24;4.70;;;1.03;;
18046;SDS011;9148;51.454;13.862;2023-10-08T04:56:00;0.77;;;0.43;;
18046;SDS011;9148;51.454;13.862;2023-10-08T04:58:41;0.70;;;0.50;;
18046;SDS011;9148;51.454;13.862;2023-10-08T05:01:11;0.20;;;0.20;;
18046;SDS011;9148;51.454;13.862;2023-10-08T05:03:54;1.20;;;0.73;;
18046;SDS011;9148;51.454;13.862;2023-10-08T05:06:24;0.80;;;0.80;;
18046;SDS011;9148;51.454;13.862;2023-10-08T05:09:12;0.73;;;0.50;;
18046;SDS011;9148;51.454;13.862;2023-10-08T05:11:44;0.53;;;0.53;;
18046;SDS011;9148;51.454;13.862;2023-10-08T05:14:31;5.77;;;0.97;;
18046;SDS011;9148;51.454;13.862;2023-10-08T05:16:57;4.20;;;0.93;;
18046;SDS011;9148;51.454;13.862;2023-10-08T05:19:47;0.60;;;0.60;;
18046;SDS011;9148;51.454;13.862;2023-10-08T05:22:23;1.77;;;0.60;;
18046;SDS011;9148;51.454;13.862;2023-10-08T05:25:08;1.17;;;0.70;;
18046;SDS011;9148;51.454;13.862;2023-10-08T05:27:40;1.57;;;0.87;;
18046;SDS011;9148;51.454;13.862;2023-10-08T05:30:13;0.67;;;0.50;;
18046;SDS011;9148;51.454;13.862;2023-10-08T05:32:52;0.73;;;0.73;;
18046;SDS011;9148;51.454;13.862;2023-10-08T05:35:51;1.63;;;0.83;;
18046;SDS011;9148;51.454;13.862;2023-10-08T05:38:27;1.50;;;0.57;;
18046;SDS011;9148;51.454;13.862;2023-10-08T05:40:56;0.73;;;0.40;;
18046;SDS011;9148;51.454;13.862;2023-10-08T05:43:23;1.63;;;0.73;;
18046;SDS011;9148;51.454;13.862;2023-10-08T05:45:59;0.97;;;0.97;;
18046;SDS011;9148;51.454;13.862;2023-10-08T05:48:44;1.40;;;0.87;;
18046;SDS011;9148;51.454;13.862;2023-10-08T05:51:27;4.90;;;1.57;;
18046;SDS011;9148;51.454;13.862;2023-10-08T05:54:10;0.90;;;0.67;;
18046;SDS011;9148;51.454;13.862;2023-10-08T05:57:13;0.63;;;0.63;;
18046;SDS011;9148;51.454;13.862;2023-10-08T05:59:38;2.30;;;1.23;;
18046;SDS011;9148;51.454;13.862;2023-10-08T06:02:22;1.20;;;0.53;;
18046;SDS011;9148;51.454;13.862;2023-10-08T06:05:08;0.80;;;0.60;;
18046;SDS011;9148;51.454;13.862;2023-10-08T06:07:46;0.83;;;0.80;;
18046;SDS011;9148;51.454;13.862;2023-10-08T06:10:28;1.00;;;0.90;;
18046;SDS011;9148;51.454;13.862;2023-10-08T06:12:59;0.70;;;0.70;;
18046;SDS011;9148;51.454;13.862;2023-10-08T06:15:42;2.13;;;0.80;;
18046;SDS011;9148;51.454;13.862;2023-10-08T06:18:12;0.57;;;0.57;;
18046;SDS011;9148;51.454;13.862;2023-10-08T06:20:40;0.57;;;0.57;;
18046;SDS011;9148;51.454;13.862;2023-10-08T06:23:10;1.27;;;0.90;;
18046;SDS011;9148;51.454;13.862;2023-10-08T06:25:38;0.80;;;0.67;;
18046;SDS011;9148;51.454;13.862;2023-10-08T06:28:19;1.53;;;0.57;;
18046;SDS011;9148;51.454;13.862;2023-10-08T06:30:50;0.50;;;0.47;;
18046;SDS011;9148;51.454;13.862;2023-10-08T06:33:21;1.90;;;0.63;;
18046;SDS011;9148;51.454;13.862;2023-10-08T06:35:50;5.13;;;1.17;;
18046;SDS011;9148;51.454;13.862;2023-10-08T06:38:39;0.50;;;0.50;;
18046;SDS011;9148;51.454;13.862;2023-10-08T06:41:06;0.73;;;0.73;;
18046;SDS011;9148;51.454;13.862;2023-10-08T06:43:39;0.63;;;0.63;;
18046;SDS011;9148;51.454;13.862;2023-10-08T06:46:13;0.90;;;0.80;;
18046;SDS011;9148;51.454;13.862;2023-10-08T06:48:39;1.97;;;0.60;;
18046;SDS011;9148;51.454;13.862;2023-10-08T06:51:09;5.20;;;0.87;;
18046;SDS011;9148;51.454;13.862;2023-10-08T06:53:40;1.80;;;0.63;;
18046;SDS011;9148;51.454;13.862;2023-10-08T06:56:07;0.63;;;0.63;;
18046;SDS011;9148;51.454;13.862;2023-10-08T06:58:37;0.90;;;0.57;;
18046;SDS011;9148;51.454;13.862;2023-10-08T07:01:03;0.60;;;0.60;;
18046;SDS011;9148;51.454;13.862;2023-10-08T07:03:33;1.00;;;0.90;;
18046;SDS011;9148;51.454;13.862;2023-10-08T07:06:03;2.10;;;1.03;;
18046;SDS011;9148;51.454;13.862;2023-10-08T07:08:41;2.70;;;1.10;;
18046;SDS011;9148;51.454;13.862;2023-10-08T07:11:12;0.60;;;0.60;;
18046;SDS011;9148;51.454;13.862;2023-10-08T07:13:38;6.37;;;2.00;;
18046;SDS011;9148;51.454;13.862;2023-10-08T07:16:07;0.70;;;0.70;;
18046;SDS011;9148;51.454;13.862;2023-10-08T07:18:36;5.60;;;1.37;;
18046;SDS011;9148;51.454;13.862;2023-10-08T07:21:03;1.97;;;1.20;;
18046;SDS011;9148;51.454;13.862;2023-10-08T07:23:47;1.50;;;1.37;;
18046;SDS011;9148;51.454;13.862;2023-10-08T07:26:22;0.83;;;0.83;;
18046;SDS011;9148;51.454;13.862;2023-10-08T07:29:01;2.07;;;1.33;;
18046;SDS011;9148;51.454;13.862;2023-10-08T07:31:34;2.37;;;0.90;;
18046;SDS011;9148;51.454;13.862;2023-10-08T07:34:07;1.70;;;1.47;;
18046;SDS011;9148;51.454;13.862;2023-10-08T07:36:50;2.13;;;1.30;;
18046;SDS011;9148;51.454;13.862;2023-10-08T07:39:20;2.53;;;1.57;;
18046;SDS011;9148;51.454;13.862;2023-10-08T07:41:50;1.83;;;1.27;;
18046;SDS011;9148;51.454;13.862;2023-10-08T07:44:16;0.93;;;0.87;;
18046;SDS011;9148;51.454;13.862;2023-10-08T07:46:46;1.80;;;1.30;;
18046;SDS011;9148;51.454;13.862;2023-10-08T07:49:19;2.83;;;1.13;;
18046;SDS011;9148;51.454;13.862;2023-10-08T07:51:45;1.60;;;1.03;;
18046;SDS011;9148;51.454;13.862;2023-10-08T07:54:16;1.70;;;1.03;;
18046;SDS011;9148;51.454;13.862;2023-10-08T07:56:44;0.80;;;0.70;;
18046;SDS011;9148;51.454;13.862;2023-10-08T07:59:12;1.57;;;1.20;;
18046;SDS011;9148;51.454;13.862;2023-10-08T08:01:41;1.37;;;0.50;;
18046;SDS011;9148;51.454;13.862;2023-10-08T08:04:11;0.50;;;0.50;;
18046;SDS011;9148;51.454;13.862;2023-10-08T08:06:48;0.70;;;0.70;;
18046;SDS011;9148;51.454;13.862;2023-10-08T08:09:15;1.80;;;1.03;;
18046;SDS011;9148;51.454;13.862;2023-10-08T08:11:48;1.00;;;0.90;;
18046;SDS011;9148;51.454;13.862;2023-10-08T08:14:22;8.27;;;1.43;;
18046;SDS011;9148;51.454;13.862;2023-10-08T08:16:49;0.83;;;0.83;;
18046;SDS011;9148;51.454;13.862;2023-10-08T08:19:16;0.97;;;0.90;;
18046;SDS011;9148;51.454;13.862;2023-10-08T08:21:43;1.10;;;0.87;;
18046;SDS011;9148;51.454;13.862;2023-10-08T08:24:12;1.77;;;0.80;;
18046;SDS011;9148;51.454;13.862;2023-10-08T08:26:38;3.07;;;2.00;;
18046;SDS011;9148;51.454;13.862;2023-10-08T08:29:05;5.10;;;1.77;;
18046;SDS011;9148;51.454;13.862;2023-10-08T08:31:40;1.55;;;0.85;;
18046;SDS011;9148;51.454;13.862;2023-10-08T08:34:11;0.97;;;0.87;;
18046;SDS011;9148;51.454;13.862;2023-10-08T08:36:44;1.17;;;0.85;;
18046;SDS011;9148;51.454;13.862;2023-10-08T08:39:14;1.40;;;0.70;;
18046;SDS011;9148;51.454;13.862;2023-10-08T08:41:58;1.05;;;0.70;;
18046;SDS011;9148;51.454;13.862;2023-10-08T08:44:28;2.45;;;1.40;;
18046;SDS011;9148;51.454;13.862;2023-10-08T08:47:00;1.20;;;1.10;;
18046;SDS011;9148;51.454;13.862;2023-10-08T08:49:32;1.02;;;0.93;;
18046;SDS011;9148;51.454;13.862;2023-10-08T08:52:02;1.95;;;0.90;;
18046;SDS011;9148;51.454;13.862;2023-10-08T08:54:29;0.80;;;0.73;;
18046;SDS011;9148;51.454;13.862;2023-10-08T08:56:55;0.70;;;0.70;;
18046;SDS011;9148;51.454;13.862;2023-10-08T08:59:25;1.55;;;1.35;;
18046;SDS011;9148;51.454;13.862;2023-10-08T09:01:52;3.40;;;0.77;;
18046;SDS011;9148;51.454;13.862;2023-10-08T09:04:27;0.40;;;0.40;;
18046;SDS011;9148;51.454;13.862;2023-10-08T09:06:55;1.35;;;0.80;;
18046;SDS011;9148;51.454;13.862;2023-10-08T09:09:20;0.60;;;0.60;;
18046;SDS011;9148;51.454;13.862;2023-10-08T09:11:51;0.85;;;0.65;;
18046;SDS011;9148;51.454;13.862;2023-10-08T09:14:21;1.45;;;0.90;;
18046;SDS011;9148;51.454;13.862;2023-10-08T09:16:50;0.60;;;0.60;;
18046;SDS011;9148;51.454;13.862;2023-10-08T09:19:19;0.73;;;0.73;;
18046;SDS011;9148;51.454;13.862;2023-10-08T09:21:59;1.40;;;0.60;;
18046;SDS011;9148;51.454;13.862;2023-10-08T09:24:25;1.85;;;1.02;;
18046;SDS011;9148;51.454;13.862;2023-10-08T09:26:54;0.60;;;0.60;;
18046;SDS011;9148;51.454;13.862;2023-10-08T09:29:23;3.10;;;1.25;;
18046;SDS011;9148;51.454;13.862;2023-10-08T09:31:55;3.88;;;2.08;;
18046;SDS011;9148;51.454;13.862;2023-10-08T09:34:25;5.55;;;1.42;;
18046;SDS011;9148;51.454;13.862;2023-10-08T09:36:55;0.95;;;0.77;;
18046;SDS011;9148;51.454;13.862;2023-10-08T09:39:24;1.30;;;1.20;;
18046;SDS011;9148;51.454;13.862;2023-10-08T09:41:53;2.03;;;1.20;;
18046;SDS011;9148;51.454;13.862;2023-10-08T09:44:21;2.35;;;1.33;;
18046;SDS011;9148;51.454;13.862;2023-10-08T09:46:51;2.25;;;1.85;;
18046;SDS011;9148;51.454;13.862;2023-10-08T09:49:41;5.10;;;1.83;;
18046;SDS011;9148;51.454;13.862;2023-10-08T09:52:29;3.33;;;1.73;;
18046;SDS011;9148;51.454;13.862;2023-10-08T09:55:15;5.82;;;2.83;;
18046;SDS011;9148;51.454;13.862;2023-10-08T09:57:43;2.63;;;2.38;;
18046;SDS011;9148;51.454;13.862;2023-10-08T10:00:09;10.65;;;6.82;;
18046;SDS011;9148;51.454;13.862;2023-10-08T10:02:43;7.18;;;5.00;;
18046;SDS011;9148;51.454;13.862;2023-10-08T10:05:13;2.30;;;2.10;;
18046;SDS011;9148;51.454;13.862;2023-10-08T10:07:47;3.30;;;1.00;;
18046;SDS011;9148;51.454;13.862;2023-10-08T10:10:26;3.33;;;1.38;;
18046;SDS011;9148;51.454;13.862;2023-10-08T10:13:03;2.05;;;1.27;;
18046;SDS011;9148;51.454;13.862;2023-10-08T10:15:33;1.50;;;1.15;;
18046;SDS011;9148;51.454;13.862;2023-10-08T10:18:15;3.25;;;1.83;;
18046;SDS011;9148;51.454;13.862;2023-10-08T10:20:57;0.80;;;0.80;;
18046;SDS011;9148;51.454;13.862;2023-10-08T10:23:38;1.98;;;1.55;;
18046;SDS011;9148;51.454;13.862;2023-10-08T10:26:24;1.02;;;0.70;;
18046;SDS011;9148;51.454;13.862;2023-10-08T10:31:44;1.67;;;0.70;;
18046;SDS011;9148;51.454;13.862;2023-10-08T10:34:12;1.63;;;1.20;;
18046;SDS011;9148;51.454;13.862;2023-10-08T10:36:41;1.75;;;1.60;;
18046;SDS011;9148;51.454;13.862;2023-10-08T10:39:13;1.38;;;0.95;;
18046;SDS011;9148;51.454;13.862;2023-10-08T10:41:54;0.65;;;0.65;;
18046;SDS011;9148;51.454;13.862;2023-10-08T10:44:22;1.00;;;0.75;;
18046;SDS011;9148;51.454;13.862;2023-10-08T10:46:51;2.17;;;1.10;;
18046;SDS011;9148;51.454;13.862;2023-10-08T10:49:25;1.35;;;0.77;;
18046;SDS011;9148;51.454;13.862;2023-10-08T10:51:57;0.75;;;0.45;;
18046;SDS011;9148;51.454;13.862;2023-10-08T10:54:23;1.02;;;0.95;;
18046;SDS011;9148;51.454;13.862;2023-10-08T10:56:50;1.50;;;1.13;;
18046;SDS011;9148;51.454;13.862;2023-10-08T10:59:30;1.35;;;0.77;;
18046;SDS011;9148;51.454;13.862;2023-10-08T11:02:03;0.75;;;0.75;;
18046;SDS011;9148;51.454;13.862;2023-10-08T11:04:45;1.17;;;1.10;;
18046;SDS011;9148;51.454;13.862;2023-10-08T11:07:17;1.73;;;0.75;;
18046;SDS011;9148;51.454;13.862;2023-10-08T11:09:48;1.45;;;0.43;;
18046;SDS011;9148;51.454;13.862;2023-10-08T11:12:17;0.77;;;0.77;;
18046;SDS011;9148;51.454;13.862;2023-10-08T11:14:48;0.63;;;0.50;;
18046;SDS011;9148;51.454;13.862;2023-10-08T11:17:17;0.50;;;0.45;;
18046;SDS011;9148;51.454;13.862;2023-10-08T11:19:49;0.77;;;0.77;;
18046;SDS011;9148;51.454;13.862;2023-10-08T11:22:16;2.92;;;0.75;;
18046;SDS011;9148;51.454;13.862;2023-10-08T11:24:43;2.28;;;0.65;;
18046;SDS011;9148;51.454;13.862;2023-10-08T11:27:17;0.90;;;0.70;;
18046;SDS011;9148;51.454;13.862;2023-10-08T11:30:09;0.70;;;0.68;;
18046;SDS011;9148;51.454;13.862;2023-10-08T11:32:36;0.47;;;0.28;;
18046;SDS011;9148;51.454;13.862;2023-10-08T11:35:03;0.47;;;0.47;;
18046;SDS011;9148;51.454;13.862;2023-10-08T11:37:44;0.47;;;0.45;;
18046;SDS011;9148;51.454;13.862;2023-10-08T11:40:22;1.50;;;0.30;;
18046;SDS011;9148;51.454;13.862;2023-10-08T11:43:05;0.40;;;0.40;;
18046;SDS011;9148;51.454;13.862;2023-10-08T11:45:30;1.20;;;0.60;;
18046;SDS011;9148;51.454;13.862;2023-10-08T11:48:12;0.68;;;0.60;;
18046;SDS011;9148;51.454;13.862;2023-10-08T11:50:47;1.50;;;0.50;;
18046;SDS011;9148;51.454;13.862;2023-10-08T11:53:15;0.30;;;0.25;;
18046;SDS011;9148;51.454;13.862;2023-10-08T11:55:44;0.63;;;0.22;;
18046;SDS011;9148;51.454;13.862;2023-10-08T11:58:13;1.27;;;0.40;;
18046;SDS011;9148;51.454;13.862;2023-10-08T12:00:42;0.40;;;0.40;;
18046;SDS011;9148;51.454;13.862;2023-10-08T12:03:10;0.80;;;0.50;;
18046;SDS011;9148;51.454;13.862;2023-10-08T12:05:37;0.17;;;0.17;;
18046;SDS011;9148;51.454;13.862;2023-10-08T12:08:12;2.40;;;0.45;;
18046;SDS011;9148;51.454;13.862;2023-10-08T12:10:43;0.95;;;0.60;;
18046;SDS011;9148;51.454;13.862;2023-10-08T12:13:11;2.35;;;0.70;;
18046;SDS011;9148;51.454;13.862;2023-10-08T12:15:37;0.70;;;0.55;;
18046;SDS011;9148;51.454;13.862;2023-10-08T12:18:03;0.50;;;0.30;;
18046;SDS011;9148;51.454;13.862;2023-10-08T12:20:49;2.38;;;0.80;;
18046;SDS011;9148;51.454;13.862;2023-10-08T12:23:14;0.25;;;0.25;;
18046;SDS011;9148;51.454;13.862;2023-10-08T12:25:54;0.68;;;0.55;;
18046;SDS011;9148;51.454;13.862;2023-10-08T12:28:22;3.00;;;0.70;;
18046;SDS011;9148;51.454;13.862;2023-10-08T12:30:49;0.50;;;0.40;;
18046;SDS011;9148;51.454;13.862;2023-10-08T12:33:20;1.00;;;0.50;;
18046;SDS011;9148;51.454;13.862;2023-10-08T12:35:49;0.40;;;0.20;;
18046;SDS011;9148;51.454;13.862;2023-10-08T12:38:20;5.38;;;0.38;;
18046;SDS011;9148;51.454;13.862;2023-10-08T12:40:53;0.38;;;0.28;;
18046;SDS011;9148;51.454;13.862;2023-10-08T12:43:19;1.17;;;0.63;;
18046;SDS011;9148;51.454;13.862;2023-10-08T12:45:52;0.85;;;0.43;;
18046;SDS011;9148;51.454;13.862;2023-10-08T12:48:19;0.30;;;0.30;;
18046;SDS011;9148;51.454;13.862;2023-10-08T12:50:52;0.73;;;0.50;;
18046;SDS011;9148;51.454;13.862;2023-10-08T12:53:26;0.35;;;0.35;;
18046;SDS011;9148;51.454;13.862;2023-10-08T12:55:59;0.38;;;0.38;;
18046;SDS011;9148;51.454;13.862;2023-10-08T12:58:30;1.38;;;0.70;;
18046;SDS011;9148;51.454;13.862;2023-10-08T13:01:03;1.00;;;0.65;;
18046;SDS011;9148;51.454;13.862;2023-10-08T13:03:31;0.20;;;0.20;;
18046;SDS011;9148;51.454;13.862;2023-10-08T13:05:57;1.40;;;0.57;;
18046;SDS011;9148;51.454;13.862;2023-10-08T13:08:30;0.25;;;0.25;;
18046;SDS011;9148;51.454;13.862;2023-10-08T13:10:59;0.45;;;0.40;;
18046;SDS011;9148;51.454;13.862;2023-10-08T13:13:29;1.40;;;0.40;;
18046;SDS011;9148;51.454;13.862;2023-10-08T13:15:55;0.40;;;0.40;;
18046;SDS011;9148;51.454;13.862;2023-10-08T13:18:25;0.82;;;0.70;;
18046;SDS011;9148;51.454;13.862;2023-10-08T13:20:51;0.60;;;0.50;;
18046;SDS011;9148;51.454;13.862;2023-10-08T13:23:17;1.13;;;0.68;;
18046;SDS011;9148;51.454;13.862;2023-10-08T13:25:45;0.85;;;0.50;;
18046;SDS011;9148;51.454;13.862;2023-10-08T13:28:18;0.30;;;0.30;;
18046;SDS011;9148;51.454;13.862;2023-10-08T13:30:51;1.00;;;0.60;;
18046;SDS011;9148;51.454;13.862;2023-10-08T13:33:20;0.57;;;0.57;;
18046;SDS011;9148;51.454;13.862;2023-10-08T13:35:50;1.45;;;0.65;;
18046;SDS011;9148;51.454;13.862;2023-10-08T13:38:17;0.55;;;0.55;;
18046;SDS011;9148;51.454;13.862;2023-10-08T13:40:45;0.93;;;0.60;;
18046;SDS011;9148;51.454;13.862;2023-10-08T13:43:27;0.80;;;0.30;;
18046;SDS011;9148;51.454;13.862;2023-10-08T13:46:06;0.32;;;0.32;;
18046;SDS011;9148;51.454;13.862;2023-10-08T13:48:38;0.50;;;0.50;;
18046;SDS011;9148;51.454;13.862;2023-10-08T13:51:06;0.90;;;0.40;;
18046;SDS011;9148;51.454;13.862;2023-10-08T13:53:39;2.28;;;1.00;;
18046;SDS011;9148;51.454;13.862;2023-10-08T13:56:06;1.13;;;0.40;;
18046;SDS011;9148;51.454;13.862;2023-10-08T13:58:32;0.65;;;0.65;;
18046;SDS011;9148;51.454;13.862;2023-10-08T14:01:05;0.20;;;0.20;;
18046;SDS011;9148;51.454;13.862;2023-10-08T14:03:43;1.23;;;0.70;;
18046;SDS011;9148;51.454;13.862;2023-10-08T14:06:19;0.50;;;0.30;;
18046;SDS011;9148;51.454;13.862;2023-10-08T14:08:45;0.70;;;0.50;;
18046;SDS011;9148;51.454;13.862;2023-10-08T14:11:26;0.20;;;0.20;;
18046;SDS011;9148;51.454;13.862;2023-10-08T14:14:01;0.57;;;0.30;;
18046;SDS011;9148;51.454;13.862;2023-10-08T14:16:33;3.83;;;0.45;;
18046;SDS011;9148;51.454;13.862;2023-10-08T14:19:00;0.17;;;0.17;;
18046;SDS011;9148;51.454;13.862;2023-10-08T14:21:32;0.28;;;0.28;;
18046;SDS011;9148;51.454;13.862;2023-10-08T14:24:03;2.42;;;0.60;;
18046;SDS011;9148;51.454;13.862;2023-10-08T14:26:30;1.08;;;0.45;;
18046;SDS011;9148;51.454;13.862;2023-10-08T14:29:02;1.38;;;0.80;;
18046;SDS011;9148;51.454;13.862;2023-10-08T14:31:40;0.20;;;0.20;;
18046;SDS011;9148;51.454;13.862;2023-10-08T14:34:09;1.30;;;0.73;;
18046;SDS011;9148;51.454;13.862;2023-10-08T14:36:58;4.03;;;0.68;;
18046;SDS011;9148;51.454;13.862;2023-10-08T14:39:42;0.47;;;0.43;;
18046;SDS011;9148;51.454;13.862;2023-10-08T14:42:46;1.75;;;0.85;;
18046;SDS011;9148;51.454;13.862;2023-10-08T14:45:43;1.90;;;0.45;;
18046;SDS011;9148;51.454;13.862;2023-10-08T14:48:11;0.70;;;0.60;;
18046;SDS011;9148;51.454;13.862;2023-10-08T14:50:38;0.77;;;0.55;;
18046;SDS011;9148;51.454;13.862;2023-10-08T14:53:04;1.70;;;0.90;;
18046;SDS011;9148;51.454;13.862;2023-10-08T14:55:30;1.55;;;0.70;;
18046;SDS011;9148;51.454;13.862;2023-10-08T14:58:00;0.82;;;0.70;;
18046;SDS011;9148;51.454;13.862;2023-10-08T15:00:32;1.67;;;0.70;;
18046;SDS011;9148;51.454;13.862;2023-10-08T15:03:00;3.08;;;1.48;;
18046;SDS011;9148;51.454;13.862;2023-10-08T15:05:30;3.15;;;2.22;;
18046;SDS011;9148;51.454;13.862;2023-10-08T15:07:56;2.30;;;2.10;;
18046;SDS011;9148;51.454;13.862;2023-10-08T15:10:22;3.15;;;1.45;;
18046;SDS011;9148;51.454;13.862;2023-10-08T15:12:48;1.63;;;1.05;;
18046;SDS011;9148;51.454;13.862;2023-10-08T15:15:16;3.15;;;1.52;;
18046;SDS011;9148;51.454;13.862;2023-10-08T15:17:43;2.85;;;1.42;;
18046;SDS011;9148;51.454;13.862;2023-10-08T15:20:15;5.55;;;1.75;;